Time;durP1;ratioP1;P1;durP2;ratioP2;P2;SDS_P1;SDS_P2;PMS_P1;PMS_P2;Temp;Humidity;BMP_temperature;BMP_pressure;BME280_temperature;BME280_humidity;BME280_pressure;Samples;Min_cycle;Max_cycle;Signal;HPM_P1;HPM_P2
2023/05/30 02:02:10;;;;;;;6.45;3.15;;;;;;;;;;4418809;27;20075;-81
2023/05/30 02:04:37;;;;;;;8.00;2.97;;;;;;;;;;4298295;33;20041;-81
2023/05/30 02:07:03;;;;;;;16.55;3.70;;;;;;;;;;4295263;33;20100;-79
2023/05/30 02:09:30;;;;;;;7.12;3.05;;;;;;;;;;4294309;33;20423;-79
2023/05/30 02:11:56;;;;;;;9.25;3.28;;;;;;;;;;4293827;33;20066;-79
2023/05/30 02:14:22;;;;;;;9.82;3.10;;;;;;;;;;4295458;33;20451;-79
2023/05/30 02:16:48;;;;;;;6.70;3.03;;;;;;;;;;4279420;33;20049;-79
2023/05/30 02:19:16;;;;;;;13.25;3.17;;;;;;;;;;4281218;33;20042;-82
2023/05/30 02:21:43;;;;;;;9.57;3.05;;;;;;;;;;4265633;33;20073;-80
2023/05/30 02:24:09;;;;;;;8.85;3.42;;;;;;;;;;4264028;33;20513;-81
2023/05/30 02:26:36;;;;;;;10.57;3.42;;;;;;;;;;4266485;33;20049;-81
2023/05/30 02:29:03;;;;;;;6.97;2.75;;;;;;;;;;4266052;33;20099;-80
2023/05/30 02:31:29;;;;;;;5.30;2.70;;;;;;;;;;4250707;33;20053;-79
2023/05/30 02:33:56;;;;;;;5.43;2.92;;;;;;;;;;4247992;33;20046;-75
2023/05/30 02:36:23;;;;;;;9.65;3.35;;;;;;;;;;4241092;33;20081;-81
2023/05/30 02:38:50;;;;;;;7.07;2.87;;;;;;;;;;4230332;33;20510;-80
2023/05/30 02:41:17;;;;;;;8.38;3.05;;;;;;;;;;4239039;33;20086;-81
2023/05/30 02:43:44;;;;;;;8.38;2.97;;;;;;;;;;4242068;33;20055;-79
2023/05/30 02:46:10;;;;;;;4.75;2.50;;;;;;;;;;4239560;33;20098;-77
2023/05/30 02:48:36;;;;;;;16.30;3.58;;;;;;;;;;4246962;33;20037;-79
2023/05/30 02:51:03;;;;;;;7.87;2.50;;;;;;;;;;4252171;33;20058;-80
2023/05/30 02:53:29;;;;;;;9.20;3.90;;;;;;;;;;4252327;33;20076;-78
2023/05/30 02:55:56;;;;;;;10.73;2.80;;;;;;;;;;4252106;33;20038;-80
2023/05/30 02:58:23;;;;;;;4.75;2.08;;;;;;;;;;4251859;33;20501;-80
2023/05/30 03:00:50;;;;;;;11.30;2.78;;;;;;;;;;4265885;33;20060;-80
2023/05/30 03:03:19;;;;;;;8.43;2.60;;;;;;;;;;4268041;33;20089;-80
2023/05/30 03:05:49;;;;;;;6.28;2.65;;;;;;;;;;4254631;33;20042;-79
2023/05/30 03:08:17;;;;;;;15.93;3.12;;;;;;;;;;4278885;33;20495;-79
2023/05/30 03:10:43;;;;;;;6.62;2.17;;;;;;;;;;4279975;33;20041;-79
2023/05/30 03:13:10;;;;;;;6.57;2.50;;;;;;;;;;4280160;33;20071;-78
2023/05/30 03:15:39;;;;;;;9.50;2.67;;;;;;;;;;4280349;33;20469;-78
2023/05/30 03:18:05;;;;;;;6.53;2.70;;;;;;;;;;4278704;33;20080;-74
2023/05/30 03:20:32;;;;;;;6.97;2.70;;;;;;;;;;4279119;33;20071;-78
2023/05/30 03:22:59;;;;;;;4.43;2.15;;;;;;;;;;4279624;33;20042;-78
2023/05/30 03:25:26;;;;;;;6.82;2.80;;;;;;;;;;4280179;33;20029;-79
2023/05/30 03:27:52;;;;;;;5.82;2.17;;;;;;;;;;4279925;33;20049;-77
2023/05/30 03:30:22;;;;;;;5.07;2.50;;;;;;;;;;4278131;33;20034;-76
2023/05/30 03:32:49;;;;;;;8.93;2.70;;;;;;;;;;4280018;33;20096;-79
2023/05/30 03:35:15;;;;;;;6.37;3.20;;;;;;;;;;4268154;33;20057;-79
2023/05/30 03:37:42;;;;;;;9.85;2.40;;;;;;;;;;4278181;33;20542;-78
2023/05/30 03:40:10;;;;;;;5.12;2.35;;;;;;;;;;4279337;33;20079;-74
2023/05/30 03:42:36;;;;;;;7.95;2.47;;;;;;;;;;4279081;33;20041;-79
2023/05/30 03:45:02;;;;;;;3.85;2.33;;;;;;;;;;4280194;33;20063;-80
2023/05/30 03:47:28;;;;;;;8.55;2.40;;;;;;;;;;4280231;33;20075;-78
2023/05/30 03:49:54;;;;;;;6.10;2.28;;;;;;;;;;4280265;33;20026;-79
2023/05/30 03:52:22;;;;;;;4.35;2.28;;;;;;;;;;4278835;33;20061;-79
2023/05/30 03:54:48;;;;;;;9.85;2.55;;;;;;;;;;4279888;33;20045;-78
2023/05/30 03:57:15;;;;;;;5.03;2.45;;;;;;;;;;4280282;33;20037;-80
2023/05/30 03:59:41;;;;;;;5.05;2.05;;;;;;;;;;4279672;33;20038;-82
2023/05/30 04:02:07;;;;;;;9.65;2.87;;;;;;;;;;4267155;33;20081;-81
2023/05/30 04:04:34;;;;;;;3.33;2.20;;;;;;;;;;4265616;33;20049;-74
2023/05/30 04:07:00;;;;;;;8.27;2.37;;;;;;;;;;4264130;33;20063;-79
2023/05/30 04:09:26;;;;;;;11.65;2.45;;;;;;;;;;4264785;33;20041;-85
2023/05/30 04:11:53;;;;;;;14.80;2.62;;;;;;;;;;4265844;33;20087;-80
2023/05/30 04:14:19;;;;;;;9.85;1.98;;;;;;;;;;4265075;33;20129;-83
2023/05/30 04:16:45;;;;;;;7.62;2.15;;;;;;;;;;4264254;33;20054;-76
2023/05/30 04:19:11;;;;;;;11.32;2.10;;;;;;;;;;4264685;33;20042;-83
2023/05/30 04:21:38;;;;;;;9.40;2.58;;;;;;;;;;4251542;33;20132;-85
2023/05/30 04:24:04;;;;;;;5.00;2.03;;;;;;;;;;4265885;33;20064;-83
2023/05/30 04:26:32;;;;;;;3.22;2.03;;;;;;;;;;4265758;33;20053;-81
2023/05/30 04:28:58;;;;;;;5.87;2.12;;;;;;;;;;4263658;33;20396;-82
2023/05/30 04:31:24;;;;;;;6.15;2.00;;;;;;;;;;4263710;33;20054;-83
2023/05/30 04:33:51;;;;;;;10.95;2.33;;;;;;;;;;4265235;33;20079;-83
2023/05/30 04:36:19;;;;;;;7.03;2.72;;;;;;;;;;4264837;33;20118;-82
2023/05/30 04:38:46;;;;;;;8.50;2.25;;;;;;;;;;4264174;33;20572;-82
2023/05/30 04:41:20;;;;;;;4.22;2.20;;;;;;;;;;4262381;33;20477;-84
2023/05/30 04:43:54;;;;;;;8.13;1.90;;;;;;;;;;4265244;33;20076;-82
2023/05/30 04:46:21;;;;;;;5.05;2.35;;;;;;;;;;4267273;33;20624;-84
2023/05/30 04:48:52;;;;;;;11.25;1.73;;;;;;;;;;4233529;33;20457;-81
2023/05/30 04:51:20;;;;;;;8.27;2.35;;;;;;;;;;4234878;33;20054;-81
2023/05/30 04:53:47;;;;;;;5.97;2.28;;;;;;;;;;4249325;33;20038;-82
2023/05/30 04:56:13;;;;;;;5.30;2.35;;;;;;;;;;4251322;33;20058;-83
2023/05/30 04:58:39;;;;;;;16.33;2.97;;;;;;;;;;4235893;33;20140;-76
2023/05/30 05:01:09;;;;;;;11.10;3.85;;;;;;;;;;4236963;33;20424;-81
2023/05/30 05:03:37;;;;;;;11.10;2.37;;;;;;;;;;4236665;33;20030;-82
2023/05/30 05:06:05;;;;;;;7.57;2.83;;;;;;;;;;4223072;33;20050;-79
2023/05/30 05:08:33;;;;;;;10.57;1.95;;;;;;;;;;4222295;33;20114;-82
2023/05/30 05:11:03;;;;;;;6.65;2.47;;;;;;;;;;4223541;33;20058;-78
2023/05/30 05:13:30;;;;;;;5.53;1.80;;;;;;;;;;4227165;33;20503;-80
2023/05/30 05:15:57;;;;;;;4.57;1.77;;;;;;;;;;4224387;34;20442;-84
2023/05/30 05:18:23;;;;;;;6.93;1.92;;;;;;;;;;4224933;33;20117;-80
2023/05/30 05:20:49;;;;;;;13.10;2.00;;;;;;;;;;4242594;33;20447;-79
2023/05/30 05:23:16;;;;;;;6.32;1.85;;;;;;;;;;4241413;33;20037;-83
2023/05/30 05:25:42;;;;;;;5.28;1.90;;;;;;;;;;4244257;33;20385;-81
2023/05/30 05:28:08;;;;;;;4.57;1.80;;;;;;;;;;4244969;33;20092;-79
2023/05/30 05:30:35;;;;;;;8.55;2.17;;;;;;;;;;4243835;33;20068;-81
2023/05/30 05:33:01;;;;;;;6.57;2.08;;;;;;;;;;4245030;33;20388;-80
2023/05/30 05:35:27;;;;;;;4.40;1.80;;;;;;;;;;4238107;33;20045;-77
2023/05/30 05:37:53;;;;;;;6.75;2.12;;;;;;;;;;4262979;33;20736;-86
2023/05/30 05:40:26;;;;;;;4.28;2.08;;;;;;;;;;4266574;33;20205;-78
2023/05/30 05:42:52;;;;;;;14.77;2.25;;;;;;;;;;4252411;33;20026;-79
2023/05/30 05:45:18;;;;;;;8.38;1.75;;;;;;;;;;4264463;33;20052;-76
2023/05/30 05:47:44;;;;;;;3.97;1.98;;;;;;;;;;4277687;33;20046;-78
2023/05/30 05:50:10;;;;;;;7.47;1.77;;;;;;;;;;4288819;33;20091;-79
2023/05/30 05:52:36;;;;;;;5.25;2.47;;;;;;;;;;4291407;33;20037;-79
2023/05/30 05:55:03;;;;;;;7.47;1.90;;;;;;;;;;4280883;33;20172;-80
2023/05/30 05:57:29;;;;;;;12.07;2.22;;;;;;;;;;4280846;33;20380;-74
2023/05/30 05:59:55;;;;;;;4.00;1.70;;;;;;;;;;4280213;33;20779;-79
2023/05/30 06:02:21;;;;;;;14.48;2.12;;;;;;;;;;4278861;33;20128;-77
2023/05/30 06:04:49;;;;;;;4.85;2.15;;;;;;;;;;4279881;33;20468;-80
2023/05/30 06:07:15;;;;;;;6.47;1.80;;;;;;;;;;4279332;33;20059;-80
2023/05/30 06:09:41;;;;;;;8.23;1.92;;;;;;;;;;4273836;33;20046;-74
2023/05/30 06:12:14;;;;;;;8.00;1.50;;;;;;;;;;4265929;33;20050;-80
2023/05/30 06:14:41;;;;;;;8.43;2.15;;;;;;;;;;4263858;33;20072;-78
2023/05/30 06:17:07;;;;;;;5.70;1.77;;;;;;;;;;4265772;33;20491;-80
2023/05/30 06:19:34;;;;;;;4.95;1.60;;;;;;;;;;4267752;33;20500;-79
2023/05/30 06:22:00;;;;;;;5.00;1.67;;;;;;;;;;4263121;33;20078;-74
2023/05/30 06:24:26;;;;;;;7.22;1.45;;;;;;;;;;4265254;33;20053;-78
2023/05/30 06:26:53;;;;;;;1.62;0.90;;;;;;;;;;4266126;33;20266;-80
2023/05/30 06:29:19;;;;;;;10.27;1.67;;;;;;;;;;4265514;33;20054;-80
2023/05/30 06:31:45;;;;;;;5.68;1.55;;;;;;;;;;4266528;33;20026;-81
2023/05/30 06:34:12;;;;;;;7.72;1.75;;;;;;;;;;4262884;33;20071;-80
2023/05/30 06:36:38;;;;;;;6.95;2.87;;;;;;;;;;4265884;33;20484;-81
2023/05/30 06:39:04;;;;;;;3.97;1.48;;;;;;;;;;4265339;33;20466;-79
2023/05/30 06:41:30;;;;;;;5.00;1.25;;;;;;;;;;4265109;33;20515;-78
2023/05/30 06:43:56;;;;;;;6.07;1.55;;;;;;;;;;4265082;33;20879;-84
2023/05/30 06:46:22;;;;;;;2.90;1.55;;;;;;;;;;4263839;33;20037;-78
2023/05/30 06:48:49;;;;;;;3.65;1.77;;;;;;;;;;4266375;33;20049;-78
2023/05/30 06:51:15;;;;;;;2.97;1.40;;;;;;;;;;4281195;33;20384;-79
2023/05/30 06:53:41;;;;;;;2.12;1.23;;;;;;;;;;4277371;33;20083;-80
2023/05/30 06:56:08;;;;;;;5.57;1.52;;;;;;;;;;4278677;33;20744;-81
2023/05/30 06:58:34;;;;;;;6.55;1.12;;;;;;;;;;4276667;33;20057;-77
2023/05/30 07:01:00;;;;;;;7.25;1.60;;;;;;;;;;4277050;33;20115;-78
2023/05/30 07:03:27;;;;;;;5.72;1.58;;;;;;;;;;4278918;33;20076;-77
2023/05/30 07:05:53;;;;;;;6.12;1.70;;;;;;;;;;4279786;33;20476;-79
2023/05/30 07:08:19;;;;;;;4.85;1.62;;;;;;;;;;4284721;33;20093;-79
2023/05/30 07:10:45;;;;;;;3.60;1.42;;;;;;;;;;4275937;33;20049;-75
2023/05/30 07:13:11;;;;;;;7.43;1.40;;;;;;;;;;4279316;33;20054;-81
2023/05/30 07:15:37;;;;;;;2.53;1.60;;;;;;;;;;4276658;33;20140;-76
2023/05/30 07:18:04;;;;;;;8.75;2.22;;;;;;;;;;4263510;33;20121;-80
2023/05/30 07:20:30;;;;;;;2.42;1.40;;;;;;;;;;4264689;33;20660;-74
2023/05/30 07:22:56;;;;;;;1.15;1.10;;;;;;;;;;4263801;33;20505;-79
2023/05/30 07:25:22;;;;;;;10.45;1.75;;;;;;;;;;4257209;33;20503;-78
2023/05/30 07:27:49;;;;;;;5.68;1.10;;;;;;;;;;4253976;33;20609;-83
2023/05/30 07:30:15;;;;;;;6.43;2.15;;;;;;;;;;4243182;33;20380;-81
2023/05/30 07:32:42;;;;;;;2.42;1.23;;;;;;;;;;4242311;33;20061;-79
2023/05/30 07:35:08;;;;;;;8.48;1.55;;;;;;;;;;4242390;33;20094;-79
2023/05/30 07:37:35;;;;;;;3.10;1.70;;;;;;;;;;4242910;33;20105;-80
2023/05/30 07:40:04;;;;;;;7.50;1.73;;;;;;;;;;4242570;33;20565;-80
2023/05/30 07:42:31;;;;;;;5.80;1.30;;;;;;;;;;4241088;33;20106;-80
2023/05/30 07:44:57;;;;;;;3.83;1.52;;;;;;;;;;4235020;33;20071;-81
2023/05/30 07:47:24;;;;;;;8.38;1.98;;;;;;;;;;4235501;33;20108;-81
2023/05/30 07:49:49;;;;;;;2.42;1.70;;;;;;;;;;4236121;33;20574;-79
2023/05/30 07:52:16;;;;;;;3.97;1.55;;;;;;;;;;4236094;33;20046;-79
2023/05/30 07:54:42;;;;;;;5.70;2.17;;;;;;;;;;4238993;33;20054;-75
2023/05/30 07:57:12;;;;;;;4.07;1.70;;;;;;;;;;4264096;33;20496;-79
2023/05/30 07:59:40;;;;;;;6.28;2.45;;;;;;;;;;4264501;33;20064;-74
2023/05/30 08:02:07;;;;;;;5.18;1.40;;;;;;;;;;4262613;33;20079;-76
2023/05/30 08:04:33;;;;;;;3.70;1.90;;;;;;;;;;4264501;33;20046;-76
2023/05/30 08:07:02;;;;;;;13.18;2.08;;;;;;;;;;4264892;33;20379;-79
2023/05/30 08:09:28;;;;;;;4.95;1.52;;;;;;;;;;4280651;33;20057;-81
2023/05/30 08:11:54;;;;;;;12.80;1.65;;;;;;;;;;4281580;33;20049;-77
2023/05/30 08:14:20;;;;;;;3.55;1.50;;;;;;;;;;4281672;33;20056;-78
2023/05/30 08:16:47;;;;;;;2.10;1.40;;;;;;;;;;4281137;33;20050;-77
2023/05/30 08:19:13;;;;;;;4.97;1.40;;;;;;;;;;4280858;33;20387;-82
2023/05/30 08:21:39;;;;;;;9.85;1.95;;;;;;;;;;4281106;33;20058;-78
2023/05/30 08:24:07;;;;;;;7.57;1.42;;;;;;;;;;4281771;33;20041;-77
2023/05/30 08:26:34;;;;;;;9.30;2.28;;;;;;;;;;4281866;33;20046;-77
2023/05/30 08:29:00;;;;;;;12.48;1.85;;;;;;;;;;4279539;33;20042;-75
2023/05/30 08:31:27;;;;;;;4.00;1.95;;;;;;;;;;4283883;33;20127;-78
2023/05/30 08:33:53;;;;;;;6.35;1.85;;;;;;;;;;4283440;33;20451;-77
2023/05/30 08:36:21;;;;;;;6.57;1.90;;;;;;;;;;4284133;33;20067;-76
2023/05/30 08:38:53;;;;;;;5.07;1.67;;;;;;;;;;4266095;33;20042;-76
2023/05/30 08:41:20;;;;;;;6.70;1.50;;;;;;;;;;4266593;33;20100;-76
2023/05/30 08:43:46;;;;;;;6.35;1.95;;;;;;;;;;4267751;33;20180;-76
2023/05/30 08:46:13;;;;;;;2.72;1.92;;;;;;;;;;4267089;33;20057;-76
2023/05/30 08:48:41;;;;;;;6.80;1.45;;;;;;;;;;4266395;33;20075;-77
2023/05/30 08:51:18;;;;;;;4.43;1.65;;;;;;;;;;4267449;33;20529;-75
2023/05/30 08:53:47;;;;;;;7.78;1.80;;;;;;;;;;4267375;33;20488;-77
2023/05/30 08:56:17;;;;;;;4.03;1.75;;;;;;;;;;4267758;33;20445;-77
2023/05/30 08:58:44;;;;;;;5.22;1.45;;;;;;;;;;4267278;33;20056;-77
2023/05/30 09:01:10;;;;;;;7.28;1.80;;;;;;;;;;4265731;33;20076;-75
2023/05/30 09:03:39;;;;;;;8.65;1.62;;;;;;;;;;4267114;33;20064;-76
2023/05/30 09:06:07;;;;;;;5.40;2.55;;;;;;;;;;4266373;33;20496;-76
2023/05/30 09:11:07;;;;;;;4.68;1.70;;;;;;;;;;4265441;33;20046;-76
2023/05/30 09:13:33;;;;;;;4.80;2.45;;;;;;;;;;4266618;33;20416;-77
2023/05/30 09:16:00;;;;;;;11.05;1.85;;;;;;;;;;4266752;33;20459;-77
2023/05/30 09:18:28;;;;;;;4.10;1.23;;;;;;;;;;4266956;33;20839;-77
2023/05/30 09:20:55;;;;;;;7.37;1.77;;;;;;;;;;4267214;33;20047;-76
2023/05/30 09:23:22;;;;;;;9.25;1.85;;;;;;;;;;4280460;33;20046;-76
2023/05/30 09:25:49;;;;;;;5.62;2.72;;;;;;;;;;4280858;33;20097;-77
2023/05/30 09:28:22;;;;;;;9.43;1.70;;;;;;;;;;4279532;33;20083;-75
2023/05/30 09:30:58;;;;;;;4.60;1.70;;;;;;;;;;4280724;33;20050;-76
2023/05/30 09:33:39;;;;;;;12.88;3.15;;;;;;;;;;4278501;33;20406;-76
2023/05/30 09:36:07;;;;;;;4.63;1.73;;;;;;;;;;4279821;33;20067;-76
2023/05/30 09:38:33;;;;;;;6.72;1.40;;;;;;;;;;4280414;33;20139;-76
2023/05/30 09:41:02;;;;;;;3.60;1.52;;;;;;;;;;4281545;33;20054;-77
2023/05/30 09:43:29;;;;;;;3.87;1.45;;;;;;;;;;4278747;33;20112;-76
2023/05/30 09:45:56;;;;;;;3.87;2.62;;;;;;;;;;4279863;33;20067;-76
2023/05/30 09:48:21;;;;;;;5.10;1.92;;;;;;;;;;4278997;33;20104;-76
2023/05/30 09:50:51;;;;;;;10.10;2.17;;;;;;;;;;4280232;33;20115;-76
2023/05/30 09:53:17;;;;;;;11.38;2.67;;;;;;;;;;4278384;33;20037;-74
2023/05/30 09:55:43;;;;;;;4.93;1.62;;;;;;;;;;4280346;33;20903;-76
2023/05/30 09:58:17;;;;;;;6.78;2.05;;;;;;;;;;4279821;33;20053;-76
2023/05/30 10:00:54;;;;;;;4.82;1.52;;;;;;;;;;4279929;33;20049;-73
2023/05/30 10:03:20;;;;;;;12.75;2.30;;;;;;;;;;4279141;33;20067;-76
2023/05/30 10:05:47;;;;;;;4.60;1.70;;;;;;;;;;4279916;33;20053;-76
2023/05/30 10:08:13;;;;;;;6.45;1.42;;;;;;;;;;4280028;33;20084;-77
2023/05/30 10:10:40;;;;;;;9.95;1.75;;;;;;;;;;4280102;33;20400;-75
2023/05/30 10:13:07;;;;;;;7.15;1.90;;;;;;;;;;4277959;33;20050;-74
2023/05/30 10:15:34;;;;;;;6.70;1.62;;;;;;;;;;4279391;33;20049;-76
2023/05/30 10:18:08;;;;;;;2.67;1.50;;;;;;;;;;4279904;33;20169;-76
2023/05/30 10:20:38;;;;;;;12.98;2.28;;;;;;;;;;4277138;33;20064;-76
2023/05/30 10:23:07;;;;;;;6.55;2.00;;;;;;;;;;4277946;33;20497;-76
2023/05/30 10:25:35;;;;;;;1.95;1.52;;;;;;;;;;4282578;33;20053;-76
2023/05/30 10:28:03;;;;;;;6.37;1.77;;;;;;;;;;4283029;33;20050;-75
2023/05/30 10:30:30;;;;;;;9.40;2.70;;;;;;;;;;4283646;33;20038;-75
2023/05/30 10:33:02;;;;;;;4.50;1.62;;;;;;;;;;4278678;33;20041;-75
2023/05/30 10:35:29;;;;;;;4.20;1.40;;;;;;;;;;4279132;33;20096;-76
2023/05/30 10:37:56;;;;;;;7.32;2.25;;;;;;;;;;4280160;33;20060;-77
2023/05/30 10:40:25;;;;;;;7.25;3.00;;;;;;;;;;4279213;33;20054;-76
2023/05/30 10:42:59;;;;;;;5.37;2.20;;;;;;;;;;4277307;33;20371;-74
2023/05/30 10:45:30;;;;;;;6.12;1.30;;;;;;;;;;4280440;33;20794;-76
2023/05/30 10:48:02;;;;;;;6.12;2.35;;;;;;;;;;4280509;33;20050;-76
2023/05/30 10:50:28;;;;;;;;;;;;;;;;;;4279105;33;20093;-74
2023/05/30 10:52:57;;;;;;;11.10;1.92;;;;;;;;;;4278825;33;19945;-76
2023/05/30 10:55:24;;;;;;;4.45;1.70;;;;;;;;;;4280302;33;20071;-76
2023/05/30 10:57:50;;;;;;;13.18;1.90;;;;;;;;;;4280331;33;20042;-77
2023/05/30 11:03:31;;;;;;;10.57;2.00;;;;;;;;;;4108528;31;20295;-77
2023/05/30 11:06:00;;;;;;;4.62;1.77;;;;;;;;;;4279790;33;20465;-77
2023/05/30 11:08:26;;;;;;;6.70;2.03;;;;;;;;;;4279844;33;20045;-77
2023/05/30 11:10:55;;;;;;;1.80;1.67;;;;;;;;;;4277901;33;20067;-77
2023/05/30 11:13:25;;;;;;;3.58;1.92;;;;;;;;;;4276466;33;20063;-77
2023/05/30 11:15:53;;;;;;;4.72;1.75;;;;;;;;;;4279995;33;20061;-78
2023/05/30 11:18:19;;;;;;;12.25;1.75;;;;;;;;;;4279731;33;20185;-77
2023/05/30 11:20:53;;;;;;;9.50;2.10;;;;;;;;;;4279367;33;20065;-77
2023/05/30 11:23:19;;;;;;;5.78;2.00;;;;;;;;;;4277530;33;20419;-75
2023/05/30 11:25:46;;;;;;;9.10;1.55;;;;;;;;;;4279370;33;20045;-77
2023/05/30 11:28:16;;;;;;;3.42;1.90;;;;;;;;;;4279684;33;20076;-78
2023/05/30 11:30:46;;;;;;;6.28;1.58;;;;;;;;;;4280481;33;20071;-77
2023/05/30 11:33:13;;;;;;;2.20;1.50;;;;;;;;;;4281354;33;20075;-74
2023/05/30 11:35:46;;;;;;;6.95;1.85;;;;;;;;;;4294933;33;20081;-78
2023/05/30 11:38:17;;;;;;;3.92;1.90;;;;;;;;;;4296268;33;20079;-77
2023/05/30 11:40:43;;;;;;;2.95;1.40;;;;;;;;;;4296021;33;20484;-78
2023/05/30 11:43:10;;;;;;;2.53;1.48;;;;;;;;;;4295166;33;20080;-74
2023/05/30 11:45:37;;;;;;;8.90;2.70;;;;;;;;;;4295325;33;20048;-77
2023/05/30 11:48:05;;;;;;;12.88;1.77;;;;;;;;;;4295015;33;20045;-77
2023/05/30 11:50:36;;;;;;;4.93;1.83;;;;;;;;;;4294640;33;20079;-75
2023/05/30 11:53:08;;;;;;;9.52;1.73;;;;;;;;;;4296343;33;20070;-76
2023/05/30 11:55:34;;;;;;;7.72;2.05;;;;;;;;;;4294700;33;20480;-77
2023/05/30 11:58:00;;;;;;;4.70;1.45;;;;;;;;;;4295189;33;20065;-77
2023/05/30 12:00:27;;;;;;;4.20;2.22;;;;;;;;;;4293905;33;20090;-77
2023/05/30 12:02:53;;;;;;;6.00;2.20;;;;;;;;;;4296254;33;20045;-76
2023/05/30 12:05:19;;;;;;;9.30;1.70;;;;;;;;;;4295985;33;20119;-75
2023/05/30 12:07:48;;;;;;;5.70;1.92;;;;;;;;;;4297073;33;20042;-77
2023/05/30 12:10:15;;;;;;;6.80;1.80;;;;;;;;;;4284028;33;20111;-76
2023/05/30 12:12:40;;;;;;;4.72;1.67;;;;;;;;;;4283064;33;20034;-78
2023/05/30 12:15:08;;;;;;;4.90;1.80;;;;;;;;;;4282165;33;20383;-78
2023/05/30 12:17:38;;;;;;;2.37;1.85;;;;;;;;;;4279178;33;20068;-75
2023/05/30 12:20:06;;;;;;;3.30;1.40;;;;;;;;;;4282033;33;20075;-77
2023/05/30 12:22:32;;;;;;;5.10;1.73;;;;;;;;;;4282761;33;20038;-78
2023/05/30 12:24:59;;;;;;;3.80;1.95;;;;;;;;;;4282644;33;20116;-76
2023/05/30 12:27:25;;;;;;;5.03;1.70;;;;;;;;;;4282483;33;20046;-77
2023/05/30 12:29:52;;;;;;;4.18;1.70;;;;;;;;;;4279467;33;20540;-77
2023/05/30 12:32:22;;;;;;;4.70;1.75;;;;;;;;;;4268290;33;20077;-77
2023/05/30 12:34:56;;;;;;;2.90;1.30;;;;;;;;;;4268015;33;20050;-76
2023/05/30 12:37:23;;;;;;;3.67;2.03;;;;;;;;;;4268566;33;20066;-73
2023/05/30 12:39:52;;;;;;;3.62;1.92;;;;;;;;;;4274012;33;20491;-77
2023/05/30 12:42:28;;;;;;;10.18;1.42;;;;;;;;;;4258188;33;20060;-77
2023/05/30 12:44:55;;;;;;;7.37;2.25;;;;;;;;;;4255180;33;20068;-77
2023/05/30 12:47:22;;;;;;;3.53;2.10;;;;;;;;;;4259713;33;20068;-76
2023/05/30 12:49:48;;;;;;;6.28;3.30;;;;;;;;;;4258950;33;21094;-77
2023/05/30 12:52:17;;;;;;;7.53;2.45;;;;;;;;;;4258922;33;20042;-77
2023/05/30 12:54:43;;;;;;;5.93;1.90;;;;;;;;;;4260962;33;20119;-76
2023/05/30 12:57:19;;;;;;;2.35;1.80;;;;;;;;;;4259175;33;20047;-76
2023/05/30 12:59:53;;;;;;;5.62;2.40;;;;;;;;;;4258162;33;20080;-77
2023/05/30 13:02:23;;;;;;;5.10;1.45;;;;;;;;;;4254837;33;20050;-76
2023/05/30 13:04:50;;;;;;;4.73;1.43;;;;;;;;;;4282121;33;20088;-74
2023/05/30 13:07:16;;;;;;;2.00;1.33;;;;;;;;;;4280084;33;20050;-76
2023/05/30 13:09:44;;;;;;;2.45;1.70;;;;;;;;;;4281739;33;20170;-77
2023/05/30 13:12:10;;;;;;;3.47;1.55;;;;;;;;;;4281732;33;20085;-76
2023/05/30 13:14:37;;;;;;;13.60;2.08;;;;;;;;;;4263065;33;20080;-76
2023/05/30 13:17:04;;;;;;;1.48;1.37;;;;;;;;;;4261994;33;20827;-73
2023/05/30 13:19:31;;;;;;;3.12;2.15;;;;;;;;;;4266233;33;20065;-77
2023/05/30 13:21:58;;;;;;;5.07;1.60;;;;;;;;;;4266688;33;20049;-77
2023/05/30 13:24:24;;;;;;;6.60;1.75;;;;;;;;;;4265224;33;20167;-76
2023/05/30 13:26:50;;;;;;;3.22;1.70;;;;;;;;;;4266480;33;20105;-77
2023/05/30 13:29:16;;;;;;;1.80;1.30;;;;;;;;;;4261900;33;20057;-74
2023/05/30 13:31:42;;;;;;;1.45;1.30;;;;;;;;;;4264963;33;20113;-77
2023/05/30 13:34:08;;;;;;;8.18;1.87;;;;;;;;;;4276132;33;20195;-76
2023/05/30 13:36:36;;;;;;;3.22;1.40;;;;;;;;;;4275469;33;20471;-77
2023/05/30 13:39:03;;;;;;;10.25;1.87;;;;;;;;;;4266959;33;20054;-77
2023/05/30 13:41:29;;;;;;;1.45;1.30;;;;;;;;;;4236610;33;20050;-73
2023/05/30 13:43:57;;;;;;;5.22;1.50;;;;;;;;;;4238747;33;20051;-76
2023/05/30 13:46:29;;;;;;;3.70;2.03;;;;;;;;;;4250423;33;20046;-76
2023/05/30 13:48:57;;;;;;;5.68;1.70;;;;;;;;;;4252667;33;20500;-77
2023/05/30 13:51:23;;;;;;;3.55;1.52;;;;;;;;;;4250339;33;20455;-77
2023/05/30 13:53:49;;;;;;;5.60;1.80;;;;;;;;;;4251836;33;20057;-76
2023/05/30 13:56:15;;;;;;;5.40;2.20;;;;;;;;;;4264607;33;20050;-76
2023/05/30 13:58:42;;;;;;;10.85;2.30;;;;;;;;;;4265878;33;20045;-76
2023/05/30 14:01:08;;;;;;;5.28;1.92;;;;;;;;;;4267024;33;20060;-77
2023/05/30 14:03:34;;;;;;;2.60;1.60;;;;;;;;;;4265305;33;20420;-76
2023/05/30 14:06:00;;;;;;;5.03;1.65;;;;;;;;;;4266959;33;20112;-77
2023/05/30 14:08:27;;;;;;;2.45;1.75;;;;;;;;;;4265802;33;20065;-77
2023/05/30 14:10:55;;;;;;;5.57;1.45;;;;;;;;;;4265651;33;20046;-77
2023/05/30 14:13:23;;;;;;;2.90;1.62;;;;;;;;;;4290334;33;20054;-73
2023/05/30 14:15:49;;;;;;;3.75;1.80;;;;;;;;;;4295767;33;20061;-78
2023/05/30 14:18:16;;;;;;;3.25;1.30;;;;;;;;;;4297367;33;20094;-78
2023/05/30 14:20:42;;;;;;;4.93;2.00;;;;;;;;;;4297354;33;20110;-76
2023/05/30 14:23:09;;;;;;;6.25;1.50;;;;;;;;;;4296684;33;20075;-79
2023/05/30 14:25:35;;;;;;;2.03;1.50;;;;;;;;;;4293685;33;20044;-79
2023/05/30 14:28:02;;;;;;;3.20;1.50;;;;;;;;;;4295856;33;20088;-77
2023/05/30 14:30:28;;;;;;;3.62;1.75;;;;;;;;;;4294965;33;20049;-76
2023/05/30 14:32:55;;;;;;;4.75;1.37;;;;;;;;;;4295152;33;20079;-77
2023/05/30 14:35:22;;;;;;;3.22;1.48;;;;;;;;;;4293823;33;20098;-73
2023/05/30 14:37:48;;;;;;;4.80;1.50;;;;;;;;;;4294712;33;20115;-77
2023/05/30 14:40:14;;;;;;;3.92;1.75;;;;;;;;;;4294966;33;20064;-78
2023/05/30 14:42:41;;;;;;;6.70;1.70;;;;;;;;;;4293811;33;20080;-78
2023/05/30 14:45:07;;;;;;;3.22;1.50;;;;;;;;;;4295944;33;20075;-78
2023/05/30 14:47:34;;;;;;;1.35;1.35;;;;;;;;;;4294841;33;20049;-78
2023/05/30 14:50:00;;;;;;;2.60;1.42;;;;;;;;;;4295570;33;20081;-78
2023/05/30 14:52:26;;;;;;;3.83;1.50;;;;;;;;;;4294977;33;20102;-78
2023/05/30 14:54:52;;;;;;;1.55;1.45;;;;;;;;;;4296945;33;20070;-79
2023/05/30 14:57:18;;;;;;;7.47;1.67;;;;;;;;;;4296458;33;20057;-75
2023/05/30 14:59:45;;;;;;;3.83;1.65;;;;;;;;;;4294748;33;20087;-76
2023/05/30 15:02:11;;;;;;;3.12;1.67;;;;;;;;;;4296041;33;20212;-78
2023/05/30 15:04:37;;;;;;;6.22;2.08;;;;;;;;;;4296669;33;20063;-80
2023/05/30 15:07:04;;;;;;;3.25;1.48;;;;;;;;;;4296267;33;20048;-78
2023/05/30 15:09:30;;;;;;;6.72;2.50;;;;;;;;;;4296100;33;20110;-79
2023/05/30 15:11:57;;;;;;;5.25;1.90;;;;;;;;;;4293972;33;20053;-78
2023/05/30 15:14:22;;;;;;;2.05;1.75;;;;;;;;;;4294327;33;20099;-79
2023/05/30 15:16:49;;;;;;;3.60;2.60;;;;;;;;;;4295522;33;20045;-79
2023/05/30 15:19:15;;;;;;;1.55;1.37;;;;;;;;;;4295706;33;20049;-79
2023/05/30 15:21:41;;;;;;;1.80;1.52;;;;;;;;;;4293469;33;20065;-79
2023/05/30 15:24:08;;;;;;;2.72;1.80;;;;;;;;;;4293084;33;20071;-79
2023/05/30 15:26:34;;;;;;;8.45;1.70;;;;;;;;;;4295205;33;20056;-79
2023/05/30 15:29:00;;;;;;;5.65;1.70;;;;;;;;;;4296482;33;20444;-79
2023/05/30 15:31:28;;;;;;;3.97;1.48;;;;;;;;;;4296440;33;20067;-79
2023/05/30 15:33:54;;;;;;;7.32;1.48;;;;;;;;;;4296329;33;20063;-79
2023/05/30 15:36:20;;;;;;;4.03;1.33;;;;;;;;;;4294298;33;20123;-80
2023/05/30 15:38:48;;;;;;;8.23;1.85;;;;;;;;;;4296845;33;21080;-79
2023/05/30 15:41:14;;;;;;;3.35;1.60;;;;;;;;;;4296740;33;20447;-79
2023/05/30 15:43:40;;;;;;;3.17;1.90;;;;;;;;;;4296737;33;20088;-80
2023/05/30 15:46:07;;;;;;;2.80;1.67;;;;;;;;;;4295201;33;20063;-80
2023/05/30 15:48:33;;;;;;;3.58;2.70;;;;;;;;;;4290957;33;20046;-79
2023/05/30 15:50:59;;;;;;;4.12;2.00;;;;;;;;;;4293576;33;20049;-80
2023/05/30 15:53:25;;;;;;;5.12;2.00;;;;;;;;;;4294108;33;20544;-78
2023/05/30 15:55:51;;;;;;;7.40;1.62;;;;;;;;;;4279423;33;20037;-78
2023/05/30 15:58:17;;;;;;;2.47;2.05;;;;;;;;;;4263184;33;20430;-73
2023/05/30 16:00:46;;;;;;;2.35;1.67;;;;;;;;;;4264104;33;20084;-78
2023/05/30 16:03:12;;;;;;;2.12;1.33;;;;;;;;;;4264201;33;20050;-78
2023/05/30 16:05:41;;;;;;;2.67;1.60;;;;;;;;;;4260342;33;20038;-78
2023/05/30 16:08:07;;;;;;;2.55;1.65;;;;;;;;;;4257883;33;20210;-78
2023/05/30 16:10:35;;;;;;;4.37;2.45;;;;;;;;;;4255261;33;20098;-78
2023/05/30 16:13:09;;;;;;;11.98;3.67;;;;;;;;;;4258176;33;20071;-77
2023/05/30 16:15:36;;;;;;;1.98;1.87;;;;;;;;;;4254675;33;20034;-77
2023/05/30 16:18:02;;;;;;;2.12;1.70;;;;;;;;;;4256636;33;20068;-77
2023/05/30 16:20:28;;;;;;;3.30;1.23;;;;;;;;;;4246713;33;20072;-75
2023/05/30 16:22:55;;;;;;;7.50;1.67;;;;;;;;;;4244596;33;20106;-77
2023/05/30 16:25:21;;;;;;;2.62;1.58;;;;;;;;;;4246645;33;20133;-77
2023/05/30 16:27:47;;;;;;;8.88;1.80;;;;;;;;;;4260432;33;20046;-77
2023/05/30 16:30:13;;;;;;;9.07;1.55;;;;;;;;;;4264347;33;20069;-77
2023/05/30 16:32:39;;;;;;;1.92;1.67;;;;;;;;;;4261015;33;20449;-78
2023/05/30 16:35:06;;;;;;;5.05;1.35;;;;;;;;;;4275995;33;20079;-77
2023/05/30 16:37:32;;;;;;;8.98;1.67;;;;;;;;;;4278453;33;20050;-78
2023/05/30 16:39:58;;;;;;;2.25;1.52;;;;;;;;;;4278623;33;20054;-77
2023/05/30 16:42:24;;;;;;;3.53;1.70;;;;;;;;;;4277871;33;20070;-77
2023/05/30 16:44:51;;;;;;;2.58;1.42;;;;;;;;;;4277664;33;20049;-77
2023/05/30 16:47:17;;;;;;;2.67;1.52;;;;;;;;;;4279129;33;20033;-78